sensor_id;sensor_type;location;lat;lon;timestamp;pressure;altitude;pressure_sealevel;temperature;humidity
55656;BME280;41530;52.382;5.270;2023-06-26T16:00:55;102136.63;;;25.45;36.71
55656;BME280;41530;52.382;5.270;2023-06-26T16:03:22;102138.28;;;25.63;38.05
55656;BME280;41530;52.382;5.270;2023-06-26T16:05:49;102135.22;;;25.74;37.24
55656;BME280;41530;52.382;5.270;2023-06-26T16:08:16;102146.28;;;25.87;36.95
55656;BME280;41530;52.382;5.270;2023-06-26T16:10:42;102136.09;;;25.97;36.73
55656;BME280;41530;52.382;5.270;2023-06-26T16:13:09;102133.22;;;26.07;36.10
55656;BME280;41530;52.382;5.270;2023-06-26T16:15:36;102133.16;;;26.15;36.66
55656;BME280;41530;52.382;5.270;2023-06-26T16:18:03;102140.38;;;26.22;36.27
55656;BME280;41530;52.382;5.270;2023-06-26T16:20:30;102137.97;;;26.27;35.67
55656;BME280;41530;52.382;5.270;2023-06-26T16:22:56;102139.16;;;26.33;35.67
55656;BME280;41530;52.382;5.270;2023-06-26T16:25:23;102141.78;;;26.41;35.29
55656;BME280;41530;52.382;5.270;2023-06-26T16:27:50;102129.44;;;26.47;35.65
55656;BME280;41530;52.382;5.270;2023-06-26T16:30:17;102135.78;;;26.54;35.22
55656;BME280;41530;52.382;5.270;2023-06-26T16:32:44;102126.31;;;26.58;35.69
55656;BME280;41530;52.382;5.270;2023-06-26T16:35:11;102142.16;;;26.61;35.44
55656;BME280;41530;52.382;5.270;2023-06-26T16:37:37;102136.19;;;26.66;35.63
55656;BME280;41530;52.382;5.270;2023-06-26T16:40:05;102135.00;;;26.68;35.00
55656;BME280;41530;52.382;5.270;2023-06-26T16:42:31;102140.88;;;26.72;34.41
55656;BME280;41530;52.382;5.270;2023-06-26T16:44:58;102134.94;;;26.76;35.48
55656;BME280;41530;52.382;5.270;2023-06-26T16:47:25;102139.13;;;26.79;35.24
55656;BME280;41530;52.382;5.270;2023-06-26T16:49:55;102143.50;;;26.80;34.81
55656;BME280;41530;52.382;5.270;2023-06-26T16:52:22;102143.31;;;26.81;34.49
55656;BME280;41530;52.382;5.270;2023-06-26T16:54:48;102138.56;;;26.83;34.04
55656;BME280;41530;52.382;5.270;2023-06-26T16:57:15;102141.09;;;26.85;33.94
55656;BME280;41530;52.382;5.270;2023-06-26T16:59:45;102123.41;;;26.82;34.05
55656;BME280;41530;52.382;5.270;2023-06-26T17:02:12;102132.16;;;26.84;34.01
55656;BME280;41530;52.382;5.270;2023-06-26T17:04:39;102138.88;;;26.88;34.00
55656;BME280;41530;52.382;5.270;2023-06-26T17:07:05;102147.81;;;26.89;33.59
55656;BME280;41530;52.382;5.270;2023-06-26T17:12:01;102135.97;;;26.90;33.88
55656;BME280;41530;52.382;5.270;2023-06-26T17:14:28;102141.19;;;26.91;33.94
55656;BME280;41530;52.382;5.270;2023-06-26T17:16:55;102143.75;;;26.93;34.29
55656;BME280;41530;52.382;5.270;2023-06-26T17:19:23;102131.63;;;26.89;33.68
55656;BME280;41530;52.382;5.270;2023-06-26T17:21:50;102141.88;;;26.93;34.42
55656;BME280;41530;52.382;5.270;2023-06-26T17:27:58;102151.50;;;26.96;34.43
55656;BME280;41530;52.382;5.270;2023-06-26T17:30:24;102144.22;;;26.96;34.42
55656;BME280;41530;52.382;5.270;2023-06-26T17:32:51;102138.81;;;26.96;34.03
55656;BME280;41530;52.382;5.270;2023-06-26T17:35:18;102135.47;;;26.94;34.13
55656;BME280;41530;52.382;5.270;2023-06-26T17:37:44;102143.38;;;26.96;33.69
55656;BME280;41530;52.382;5.270;2023-06-26T17:40:11;102146.94;;;26.96;33.67
55656;BME280;41530;52.382;5.270;2023-06-26T17:42:38;102157.72;;;26.96;34.25
55656;BME280;41530;52.382;5.270;2023-06-26T17:45:10;102159.59;;;26.96;34.17
55656;BME280;41530;52.382;5.270;2023-06-26T17:47:37;102149.81;;;26.95;34.27
55656;BME280;41530;52.382;5.270;2023-06-26T17:50:05;102160.78;;;26.93;34.59
55656;BME280;41530;52.382;5.270;2023-06-26T17:52:32;102163.13;;;26.96;34.82
55656;BME280;41530;52.382;5.270;2023-06-26T17:54:58;102156.56;;;26.91;33.67
55656;BME280;41530;52.382;5.270;2023-06-26T17:57:25;102159.47;;;26.89;33.54
55656;BME280;41530;52.382;5.270;2023-06-26T17:59:52;102155.25;;;26.87;33.91
55656;BME280;41530;52.382;5.270;2023-06-26T18:02:18;102160.84;;;26.85;34.16
55656;BME280;41530;52.382;5.270;2023-06-26T18:04:45;102173.50;;;26.85;33.92
55656;BME280;41530;52.382;5.270;2023-06-26T18:07:12;102167.78;;;26.80;33.90
55656;BME280;41530;52.382;5.270;2023-06-26T18:09:38;102176.75;;;26.80;33.74
55656;BME280;41530;52.382;5.270;2023-06-26T18:12:05;102171.50;;;26.79;33.55
55656;BME280;41530;52.382;5.270;2023-06-26T18:14:32;102178.78;;;26.78;34.23
55656;BME280;41530;52.382;5.270;2023-06-26T18:16:59;102171.06;;;26.75;34.17
55656;BME280;41530;52.382;5.270;2023-06-26T18:19:25;102176.47;;;26.75;34.23
55656;BME280;41530;52.382;5.270;2023-06-26T18:21:52;102176.47;;;26.75;33.92
55656;BME280;41530;52.382;5.270;2023-06-26T18:24:18;102184.06;;;26.72;33.91
55656;BME280;41530;52.382;5.270;2023-06-26T18:26:45;102186.09;;;26.70;33.68
55656;BME280;41530;52.382;5.270;2023-06-26T18:29:12;102184.50;;;26.60;33.07
55656;BME280;41530;52.382;5.270;2023-06-26T18:31:39;102174.53;;;26.61;33.83
55656;BME280;41530;52.382;5.270;2023-06-26T18:34:05;102180.97;;;26.60;33.97
55656;BME280;41530;52.382;5.270;2023-06-26T18:36:32;102181.31;;;26.57;33.70
55656;BME280;41530;52.382;5.270;2023-06-26T18:39:00;102187.56;;;26.57;33.74
55656;BME280;41530;52.382;5.270;2023-06-26T18:41:27;102188.06;;;26.53;33.80
55656;BME280;41530;52.382;5.270;2023-06-26T18:43:53;102186.22;;;26.53;34.34
55656;BME280;41530;52.382;5.270;2023-06-26T18:46:20;102184.25;;;26.47;32.89
55656;BME280;41530;52.382;5.270;2023-06-26T18:48:47;102179.03;;;26.46;33.32
55656;BME280;41530;52.382;5.270;2023-06-26T18:51:13;102180.53;;;26.48;34.05
55656;BME280;41530;52.382;5.270;2023-06-26T18:53:40;102181.72;;;26.46;33.85
55656;BME280;41530;52.382;5.270;2023-06-26T18:56:07;102180.22;;;26.43;33.19
55656;BME280;41530;52.382;5.270;2023-06-26T18:58:35;102176.69;;;26.43;33.90
55656;BME280;41530;52.382;5.270;2023-06-26T19:01:03;102188.31;;;26.43;33.96
55656;BME280;41530;52.382;5.270;2023-06-26T19:03:29;102176.19;;;26.39;33.96
55656;BME280;41530;52.382;5.270;2023-06-26T19:05:56;102178.03;;;26.39;33.99
55656;BME280;41530;52.382;5.270;2023-06-26T19:08:23;102181.31;;;26.34;33.56
55656;BME280;41530;52.382;5.270;2023-06-26T19:10:49;102186.03;;;26.32;34.19
55656;BME280;41530;52.382;5.270;2023-06-26T19:13:16;102182.97;;;26.27;34.10
55656;BME280;41530;52.382;5.270;2023-06-26T19:15:43;102184.84;;;26.26;34.03
55656;BME280;41530;52.382;5.270;2023-06-26T19:18:09;102190.41;;;26.25;34.43
55656;BME280;41530;52.382;5.270;2023-06-26T19:20:36;102199.72;;;26.22;33.50
55656;BME280;41530;52.382;5.270;2023-06-26T19:23:04;102193.00;;;26.18;34.00
55656;BME280;41530;52.382;5.270;2023-06-26T19:25:31;102190.47;;;26.17;34.47
55656;BME280;41530;52.382;5.270;2023-06-26T19:27:57;102160.56;;;25.96;33.82
55656;BME280;41530;52.382;5.270;2023-06-26T19:30:24;102160.09;;;25.92;34.38
55656;BME280;41530;52.382;5.270;2023-06-26T19:32:53;102170.34;;;25.97;33.65
55656;BME280;41530;52.382;5.270;2023-06-26T19:35:20;102169.84;;;25.93;34.14
55656;BME280;41530;52.382;5.270;2023-06-26T19:37:48;102170.88;;;25.92;34.70
55656;BME280;41530;52.382;5.270;2023-06-26T19:40:32;102195.72;;;26.10;34.25
55656;BME280;41530;52.382;5.270;2023-06-26T19:42:59;102167.31;;;25.91;34.36
55656;BME280;41530;52.382;5.270;2023-06-26T19:45:29;102172.06;;;25.89;33.75
55656;BME280;41530;52.382;5.270;2023-06-26T19:47:56;102177.44;;;25.89;34.32
55656;BME280;41530;52.382;5.270;2023-06-26T19:50:23;102207.72;;;26.08;34.91
55656;BME280;41530;52.382;5.270;2023-06-26T19:52:50;102175.94;;;25.87;34.65
55656;BME280;41530;52.382;5.270;2023-06-26T19:55:19;102178.47;;;25.88;34.99
55656;BME280;41530;52.382;5.270;2023-06-26T19:57:46;102211.44;;;26.07;34.80
55656;BME280;41530;52.382;5.270;2023-06-26T20:00:15;102180.97;;;25.90;35.08
55656;BME280;41530;52.382;5.270;2023-06-26T20:02:43;102200.31;;;26.02;35.19
55656;BME280;41530;52.382;5.270;2023-06-26T20:05:10;102213.44;;;26.05;34.91
55656;BME280;41530;52.382;5.270;2023-06-26T20:07:39;102219.84;;;26.04;35.02
55656;BME280;41530;52.382;5.270;2023-06-26T20:10:07;102217.50;;;26.01;35.09
55656;BME280;41530;52.382;5.270;2023-06-26T20:12:34;102202.38;;;25.91;35.16
55656;BME280;41530;52.382;5.270;2023-06-26T20:15:01;102218.22;;;25.95;35.22
55656;BME280;41530;52.382;5.270;2023-06-26T20:17:27;102226.13;;;25.96;35.09
55656;BME280;41530;52.382;5.270;2023-06-26T20:19:54;102208.97;;;25.89;35.16
55656;BME280;41530;52.382;5.270;2023-06-26T20:22:21;102213.84;;;25.94;35.19
55656;BME280;41530;52.382;5.270;2023-06-26T20:24:48;102222.78;;;25.94;35.55
55656;BME280;41530;52.382;5.270;2023-06-26T20:27:14;102215.69;;;25.93;35.42
55656;BME280;41530;52.382;5.270;2023-06-26T20:29:41;102215.88;;;25.91;35.28
55656;BME280;41530;52.382;5.270;2023-06-26T20:32:08;102215.03;;;25.91;35.63
55656;BME280;41530;52.382;5.270;2023-06-26T20:34:34;102221.25;;;25.91;35.44
55656;BME280;41530;52.382;5.270;2023-06-26T20:37:02;102221.44;;;25.90;35.89
55656;BME280;41530;52.382;5.270;2023-06-26T20:39:31;102215.19;;;25.89;35.75
55656;BME280;41530;52.382;5.270;2023-06-26T20:41:58;102218.91;;;25.88;35.72
55656;BME280;41530;52.382;5.270;2023-06-26T20:44:26;102219.91;;;25.87;35.43
55656;BME280;41530;52.382;5.270;2023-06-26T20:46:53;102215.69;;;25.85;35.93
55656;BME280;41530;52.382;5.270;2023-06-26T20:49:26;102216.72;;;25.84;35.96
55656;BME280;41530;52.382;5.270;2023-06-26T20:51:55;102224.63;;;25.85;35.65
55656;BME280;41530;52.382;5.270;2023-06-26T20:54:23;102220.44;;;25.83;35.87
55656;BME280;41530;52.382;5.270;2023-06-26T20:56:50;102213.38;;;25.82;36.06
55656;BME280;41530;52.382;5.270;2023-06-26T20:59:17;102221.63;;;25.80;35.84
55656;BME280;41530;52.382;5.270;2023-06-26T21:01:45;102223.50;;;25.80;36.25
55656;BME280;41530;52.382;5.270;2023-06-26T21:04:11;102212.72;;;25.80;36.18
55656;BME280;41530;52.382;5.270;2023-06-26T21:06:39;102223.66;;;25.78;36.18
55656;BME280;41530;52.382;5.270;2023-06-26T21:09:05;102224.84;;;25.76;36.13
55656;BME280;41530;52.382;5.270;2023-06-26T21:11:32;102225.84;;;25.75;36.36
55656;BME280;41530;52.382;5.270;2023-06-26T21:13:59;102224.16;;;25.74;36.03
55656;BME280;41530;52.382;5.270;2023-06-26T21:16:26;102219.78;;;25.73;36.34
55656;BME280;41530;52.382;5.270;2023-06-26T21:18:53;102215.41;;;25.72;36.16
55656;BME280;41530;52.382;5.270;2023-06-26T21:21:20;102219.13;;;25.71;36.61
55656;BME280;41530;52.382;5.270;2023-06-26T21:23:46;102219.97;;;25.71;36.49
55656;BME280;41530;52.382;5.270;2023-06-26T21:26:13;102213.09;;;25.69;36.33
55656;BME280;41530;52.382;5.270;2023-06-26T21:28:40;102217.97;;;25.65;36.73
55656;BME280;41530;52.382;5.270;2023-06-26T21:31:07;102205.34;;;25.66;36.67
55656;BME280;41530;52.382;5.270;2023-06-26T21:33:34;102210.91;;;25.64;36.63
55656;BME280;41530;52.382;5.270;2023-06-26T21:36:01;102206.34;;;25.65;36.95
55656;BME280;41530;52.382;5.270;2023-06-26T21:38:28;102206.69;;;25.62;36.53
55656;BME280;41530;52.382;5.270;2023-06-26T21:40:54;102210.22;;;25.62;36.73
55656;BME280;41530;52.382;5.270;2023-06-26T21:43:21;102213.06;;;25.61;36.68
55656;BME280;41530;52.382;5.270;2023-06-26T21:45:48;102207.84;;;25.59;36.96
55656;BME280;41530;52.382;5.270;2023-06-26T21:48:15;102208.00;;;25.57;36.98
55656;BME280;41530;52.382;5.270;2023-06-26T21:50:42;102213.38;;;25.57;36.81
55656;BME280;41530;52.382;5.270;2023-06-26T21:53:09;102210.06;;;25.55;36.99
55656;BME280;41530;52.382;5.270;2023-06-26T21:55:35;102217.13;;;25.56;37.00
55656;BME280;41530;52.382;5.270;2023-06-26T21:58:02;102210.91;;;25.56;36.94
55656;BME280;41530;52.382;5.270;2023-06-26T22:00:29;102212.91;;;25.54;36.99
55656;BME280;41530;52.382;5.270;2023-06-26T22:02:56;102207.53;;;25.54;37.14
55656;BME280;41530;52.382;5.270;2023-06-26T22:05:22;102215.59;;;25.54;37.44
55656;BME280;41530;52.382;5.270;2023-06-26T22:07:49;102210.72;;;25.49;37.39
55656;BME280;41530;52.382;5.270;2023-06-26T22:10:22;102201.63;;;25.50;37.31
55656;BME280;41530;52.382;5.270;2023-06-26T22:12:48;102203.66;;;25.48;37.61
55656;BME280;41530;52.382;5.270;2023-06-26T22:15:15;102209.88;;;25.49;37.61
55656;BME280;41530;52.382;5.270;2023-06-26T22:17:50;102206.34;;;25.48;37.39
55656;BME280;41530;52.382;5.270;2023-06-26T22:20:17;102206.69;;;25.45;37.58
55656;BME280;41530;52.382;5.270;2023-06-26T22:22:44;102208.69;;;25.43;37.63
55656;BME280;41530;52.382;5.270;2023-06-26T22:25:12;102199.97;;;25.41;38.00
55656;BME280;41530;52.382;5.270;2023-06-26T22:27:50;102198.47;;;25.39;37.76
55656;BME280;41530;52.382;5.270;2023-06-26T22:30:20;102198.63;;;25.37;37.87
55656;BME280;41530;52.382;5.270;2023-06-26T22:32:47;102189.03;;;25.35;37.82
55656;BME280;41530;52.382;5.270;2023-06-26T22:35:15;102195.09;;;25.37;38.08
55656;BME280;41530;52.382;5.270;2023-06-26T22:37:42;102183.63;;;25.35;38.12
55656;BME280;41530;52.382;5.270;2023-06-26T22:40:11;102188.84;;;25.36;38.10
55656;BME280;41530;52.382;5.270;2023-06-26T22:42:38;102182.97;;;25.33;38.11
55656;BME280;41530;52.382;5.270;2023-06-26T22:45:08;102182.13;;;25.32;38.59
55656;BME280;41530;52.382;5.270;2023-06-26T22:47:36;102179.78;;;25.29;38.62
55656;BME280;41530;52.382;5.270;2023-06-26T22:50:05;102170.88;;;25.20;38.72
55656;BME280;41530;52.382;5.270;2023-06-26T22:52:32;102183.50;;;25.20;38.60
55656;BME280;41530;52.382;5.270;2023-06-26T22:54:59;102187.19;;;25.19;38.61
55656;BME280;41530;52.382;5.270;2023-06-26T22:57:27;102189.03;;;25.18;39.11
55656;BME280;41530;52.382;5.270;2023-06-26T22:59:54;102185.50;;;25.18;38.83
55656;BME280;41530;52.382;5.270;2023-06-26T23:02:21;102179.28;;;25.17;38.61
55656;BME280;41530;52.382;5.270;2023-06-26T23:04:48;102183.66;;;25.18;38.90
55656;BME280;41530;52.382;5.270;2023-06-26T23:07:15;102189.03;;;25.18;39.05
55656;BME280;41530;52.382;5.270;2023-06-26T23:09:42;102182.34;;;25.14;39.14
55656;BME280;41530;52.382;5.270;2023-06-26T23:12:09;102182.50;;;25.13;38.96
55656;BME280;41530;52.382;5.270;2023-06-26T23:14:36;102182.34;;;25.14;39.11
55656;BME280;41530;52.382;5.270;2023-06-26T23:17:03;102181.66;;;25.12;39.22
55656;BME280;41530;52.382;5.270;2023-06-26T23:19:31;102183.69;;;25.10;39.20
55656;BME280;41530;52.382;5.270;2023-06-26T23:21:59;102180.13;;;25.10;39.16
55656;BME280;41530;52.382;5.270;2023-06-26T23:24:27;102185.38;;;25.11;39.33
55656;BME280;41530;52.382;5.270;2023-06-26T23:26:59;102177.28;;;25.11;39.49
55656;BME280;41530;52.382;5.270;2023-06-26T23:29:26;102179.97;;;25.11;39.56
55656;BME280;41530;52.382;5.270;2023-06-26T23:31:53;102181.66;;;25.12;39.45
55656;BME280;41530;52.382;5.270;2023-06-26T23:34:20;102175.44;;;25.12;39.39
55656;BME280;41530;52.382;5.270;2023-06-26T23:36:47;102177.78;;;25.15;39.48
55656;BME280;41530;52.382;5.270;2023-06-26T23:39:19;102174.41;;;25.13;39.70
55656;BME280;41530;52.382;5.270;2023-06-26T23:41:48;102179.13;;;25.11;39.55
55656;BME280;41530;52.382;5.270;2023-06-26T23:44:16;102178.13;;;25.12;39.60
55656;BME280;41530;52.382;5.270;2023-06-26T23:46:46;102175.59;;;25.10;39.65
55656;BME280;41530;52.382;5.270;2023-06-26T23:49:13;102178.13;;;25.12;39.43
55656;BME280;41530;52.382;5.270;2023-06-26T23:51:40;102178.13;;;25.12;39.70
55656;BME280;41530;52.382;5.270;2023-06-26T23:54:06;102186.19;;;25.12;39.56
55656;BME280;41530;52.382;5.270;2023-06-26T23:56:33;102182.66;;;25.11;39.51
55656;BME280;41530;52.382;5.270;2023-06-26T23:59:00;102175.59;;;25.10;39.68
